<?xml version="1.0" encoding="UTF-8" standalone="no" ?>
<gpx xmlns="http://www.topografix.com/GPX/1/1" xmlns:xsi="http://www.w3.org/2001/XMLSchema-instance" xsi:schemaLocation="http://www.topografix.com/GPX/1/1 http://www.topografix.com/GPX/1/1/gpx.xsd" version="1.1" creator="VisuGPX - https://www.visugpx.com">
  <metadata>
    <name>20 Juin - Ascension du Toubkal</name>
    <desc><![CDATA[Ascension du Toubkal - Montée 
matinée]]></desc>
  </metadata>
  <trk>
    <name><![CDATA[2018-06-20 11:23:59]]></name>
    <trkseg>
      <trkpt lat="31.06348" lon="-7.93718">
        <ele>3215.53</ele>
        <time>2018-06-20T05:12:29Z</time>
      </trkpt>
      <trkpt lat="31.06379" lon="-7.93707">
        <ele>3215.93</ele>
        <time>2018-06-20T05:13:29Z</time>
      </trkpt>
      <trkpt lat="31.06351" lon="-7.93706">
        <ele>3215.61</ele>
        <time>2018-06-20T05:14:29Z</time>
      </trkpt>
      <trkpt lat="31.06339" lon="-7.93701">
        <ele>3218.68</ele>
        <time>2018-06-20T05:15:29Z</time>
      </trkpt>
      <trkpt lat="31.06326" lon="-7.93707">
        <ele>3224.94</ele>
        <time>2018-06-20T05:16:29Z</time>
      </trkpt>
      <trkpt lat="31.06311" lon="-7.9372">
        <ele>3232.18</ele>
        <time>2018-06-20T05:17:30Z</time>
      </trkpt>
      <trkpt lat="31.06285" lon="-7.93726">
        <ele>3239.35</ele>
        <time>2018-06-20T05:18:30Z</time>
      </trkpt>
      <trkpt lat="31.06268" lon="-7.93705">
        <ele>3245.3</ele>
        <time>2018-06-20T05:19:30Z</time>
      </trkpt>
      <trkpt lat="31.06252" lon="-7.93693">
        <ele>3251.8</ele>
        <time>2018-06-20T05:20:30Z</time>
      </trkpt>
      <trkpt lat="31.06232" lon="-7.93684">
        <ele>3258.42</ele>
        <time>2018-06-20T05:21:31Z</time>
      </trkpt>
      <trkpt lat="31.06217" lon="-7.93679">
        <ele>3264.72</ele>
        <time>2018-06-20T05:22:32Z</time>
      </trkpt>
      <trkpt lat="31.06205" lon="-7.93674">
        <ele>3271.75</ele>
        <time>2018-06-20T05:23:32Z</time>
      </trkpt>
      <trkpt lat="31.0619" lon="-7.93672">
        <ele>3277.63</ele>
        <time>2018-06-20T05:24:32Z</time>
      </trkpt>
      <trkpt lat="31.0617" lon="-7.93679">
        <ele>3284.53</ele>
        <time>2018-06-20T05:25:32Z</time>
      </trkpt>
      <trkpt lat="31.06145" lon="-7.93657">
        <ele>3289.31</ele>
        <time>2018-06-20T05:26:33Z</time>
      </trkpt>
      <trkpt lat="31.06143" lon="-7.93632">
        <ele>3294.64</ele>
        <time>2018-06-20T05:27:33Z</time>
      </trkpt>
      <trkpt lat="31.06141" lon="-7.93628">
        <ele>3296.97</ele>
        <time>2018-06-20T05:28:33Z</time>
      </trkpt>
      <trkpt lat="31.06139" lon="-7.93627">
        <ele>3296.52</ele>
        <time>2018-06-20T05:29:33Z</time>
      </trkpt>
      <trkpt lat="31.06138" lon="-7.93626">
        <ele>3297.01</ele>
        <time>2018-06-20T05:30:33Z</time>
      </trkpt>
      <trkpt lat="31.06138" lon="-7.93628">
        <ele>3297.08</ele>
        <time>2018-06-20T05:31:33Z</time>
      </trkpt>
      <trkpt lat="31.06139" lon="-7.9362">
        <ele>3298.15</ele>
        <time>2018-06-20T05:32:33Z</time>
      </trkpt>
      <trkpt lat="31.06153" lon="-7.93581">
        <ele>3304.94</ele>
        <time>2018-06-20T05:33:34Z</time>
      </trkpt>
      <trkpt lat="31.06144" lon="-7.93573">
        <ele>3311.69</ele>
        <time>2018-06-20T05:34:34Z</time>
      </trkpt>
      <trkpt lat="31.06155" lon="-7.93552">
        <ele>3317.31</ele>
        <time>2018-06-20T05:35:34Z</time>
      </trkpt>
      <trkpt lat="31.06159" lon="-7.93541">
        <ele>3322.55</ele>
        <time>2018-06-20T05:36:34Z</time>
      </trkpt>
      <trkpt lat="31.06165" lon="-7.93533">
        <ele>3325.93</ele>
        <time>2018-06-20T05:37:34Z</time>
      </trkpt>
      <trkpt lat="31.06169" lon="-7.93514">
        <ele>3332.64</ele>
        <time>2018-06-20T05:38:34Z</time>
      </trkpt>
      <trkpt lat="31.06172" lon="-7.935">
        <ele>3338.18</ele>
        <time>2018-06-20T05:39:34Z</time>
      </trkpt>
      <trkpt lat="31.06177" lon="-7.93489">
        <ele>3343.06</ele>
        <time>2018-06-20T05:40:34Z</time>
      </trkpt>
      <trkpt lat="31.06187" lon="-7.93471">
        <ele>3348.29</ele>
        <time>2018-06-20T05:41:34Z</time>
      </trkpt>
      <trkpt lat="31.06188" lon="-7.9346">
        <ele>3353.12</ele>
        <time>2018-06-20T05:42:34Z</time>
      </trkpt>
      <trkpt lat="31.06191" lon="-7.93455">
        <ele>3357.35</ele>
        <time>2018-06-20T05:43:35Z</time>
      </trkpt>
      <trkpt lat="31.06188" lon="-7.9344">
        <ele>3363.2</ele>
        <time>2018-06-20T05:44:35Z</time>
      </trkpt>
      <trkpt lat="31.06187" lon="-7.93433">
        <ele>3367.2</ele>
        <time>2018-06-20T05:45:35Z</time>
      </trkpt>
      <trkpt lat="31.06193" lon="-7.93416">
        <ele>3370.67</ele>
        <time>2018-06-20T05:46:35Z</time>
      </trkpt>
      <trkpt lat="31.06197" lon="-7.93402">
        <ele>3375.31</ele>
        <time>2018-06-20T05:47:35Z</time>
      </trkpt>
      <trkpt lat="31.06211" lon="-7.93399">
        <ele>3380.45</ele>
        <time>2018-06-20T05:48:35Z</time>
      </trkpt>
      <trkpt lat="31.06217" lon="-7.93389">
        <ele>3385.5</ele>
        <time>2018-06-20T05:49:35Z</time>
      </trkpt>
      <trkpt lat="31.06224" lon="-7.93385">
        <ele>3389.51</ele>
        <time>2018-06-20T05:50:35Z</time>
      </trkpt>
      <trkpt lat="31.06221" lon="-7.93385">
        <ele>3389.79</ele>
        <time>2018-06-20T05:51:35Z</time>
      </trkpt>
      <trkpt lat="31.06221" lon="-7.93385">
        <ele>3389.44</ele>
        <time>2018-06-20T05:52:35Z</time>
      </trkpt>
      <trkpt lat="31.06224" lon="-7.93377">
        <ele>3391.65</ele>
        <time>2018-06-20T05:53:35Z</time>
      </trkpt>
      <trkpt lat="31.0623" lon="-7.93368">
        <ele>3395.77</ele>
        <time>2018-06-20T05:54:35Z</time>
      </trkpt>
      <trkpt lat="31.06249" lon="-7.9334">
        <ele>3402.53</ele>
        <time>2018-06-20T05:55:35Z</time>
      </trkpt>
      <trkpt lat="31.06254" lon="-7.93323">
        <ele>3408.18</ele>
        <time>2018-06-20T05:56:37Z</time>
      </trkpt>
      <trkpt lat="31.0626" lon="-7.93297">
        <ele>3414.35</ele>
        <time>2018-06-20T05:57:37Z</time>
      </trkpt>
      <trkpt lat="31.06269" lon="-7.93275">
        <ele>3419.56</ele>
        <time>2018-06-20T05:58:37Z</time>
      </trkpt>
      <trkpt lat="31.06263" lon="-7.93264">
        <ele>3425.42</ele>
        <time>2018-06-20T05:59:37Z</time>
      </trkpt>
      <trkpt lat="31.06251" lon="-7.93254">
        <ele>3430.83</ele>
        <time>2018-06-20T06:00:37Z</time>
      </trkpt>
      <trkpt lat="31.06241" lon="-7.93244">
        <ele>3436.4</ele>
        <time>2018-06-20T06:01:37Z</time>
      </trkpt>
      <trkpt lat="31.06227" lon="-7.93231">
        <ele>3442.55</ele>
        <time>2018-06-20T06:02:37Z</time>
      </trkpt>
      <trkpt lat="31.06207" lon="-7.93223">
        <ele>3447.92</ele>
        <time>2018-06-20T06:03:37Z</time>
      </trkpt>
      <trkpt lat="31.06188" lon="-7.93229">
        <ele>3453.89</ele>
        <time>2018-06-20T06:04:38Z</time>
      </trkpt>
      <trkpt lat="31.06171" lon="-7.93233">
        <ele>3458.04</ele>
        <time>2018-06-20T06:05:38Z</time>
      </trkpt>
      <trkpt lat="31.06159" lon="-7.9323">
        <ele>3462.52</ele>
        <time>2018-06-20T06:06:38Z</time>
      </trkpt>
      <trkpt lat="31.06155" lon="-7.93211">
        <ele>3468.96</ele>
        <time>2018-06-20T06:07:38Z</time>
      </trkpt>
      <trkpt lat="31.06167" lon="-7.93189">
        <ele>3474.59</ele>
        <time>2018-06-20T06:08:38Z</time>
      </trkpt>
      <trkpt lat="31.06169" lon="-7.93174">
        <ele>3480.04</ele>
        <time>2018-06-20T06:09:38Z</time>
      </trkpt>
      <trkpt lat="31.0617" lon="-7.93154">
        <ele>3487.29</ele>
        <time>2018-06-20T06:10:38Z</time>
      </trkpt>
      <trkpt lat="31.06165" lon="-7.93135">
        <ele>3493.27</ele>
        <time>2018-06-20T06:11:38Z</time>
      </trkpt>
      <trkpt lat="31.06167" lon="-7.93122">
        <ele>3498.37</ele>
        <time>2018-06-20T06:12:38Z</time>
      </trkpt>
      <trkpt lat="31.06168" lon="-7.93103">
        <ele>3504.71</ele>
        <time>2018-06-20T06:13:38Z</time>
      </trkpt>
      <trkpt lat="31.06167" lon="-7.93086">
        <ele>3510.22</ele>
        <time>2018-06-20T06:14:38Z</time>
      </trkpt>
      <trkpt lat="31.06155" lon="-7.93077">
        <ele>3514.95</ele>
        <time>2018-06-20T06:15:39Z</time>
      </trkpt>
      <trkpt lat="31.06154" lon="-7.93064">
        <ele>3519.42</ele>
        <time>2018-06-20T06:16:39Z</time>
      </trkpt>
      <trkpt lat="31.06146" lon="-7.9305">
        <ele>3525.39</ele>
        <time>2018-06-20T06:17:39Z</time>
      </trkpt>
      <trkpt lat="31.06142" lon="-7.93041">
        <ele>3530.67</ele>
        <time>2018-06-20T06:18:39Z</time>
      </trkpt>
      <trkpt lat="31.06137" lon="-7.9304">
        <ele>3536.07</ele>
        <time>2018-06-20T06:19:42Z</time>
      </trkpt>
      <trkpt lat="31.06127" lon="-7.93023">
        <ele>3541.82</ele>
        <time>2018-06-20T06:20:42Z</time>
      </trkpt>
      <trkpt lat="31.0612" lon="-7.93008">
        <ele>3547.73</ele>
        <time>2018-06-20T06:21:42Z</time>
      </trkpt>
      <trkpt lat="31.06112" lon="-7.93002">
        <ele>3552.5</ele>
        <time>2018-06-20T06:22:42Z</time>
      </trkpt>
      <trkpt lat="31.06106" lon="-7.9299">
        <ele>3558.62</ele>
        <time>2018-06-20T06:23:42Z</time>
      </trkpt>
      <trkpt lat="31.06095" lon="-7.92976">
        <ele>3564.12</ele>
        <time>2018-06-20T06:24:42Z</time>
      </trkpt>
      <trkpt lat="31.0609" lon="-7.92967">
        <ele>3569.96</ele>
        <time>2018-06-20T06:25:42Z</time>
      </trkpt>
      <trkpt lat="31.06093" lon="-7.92952">
        <ele>3576.19</ele>
        <time>2018-06-20T06:26:42Z</time>
      </trkpt>
      <trkpt lat="31.06092" lon="-7.92941">
        <ele>3580.96</ele>
        <time>2018-06-20T06:27:42Z</time>
      </trkpt>
      <trkpt lat="31.06083" lon="-7.92929">
        <ele>3586.29</ele>
        <time>2018-06-20T06:28:42Z</time>
      </trkpt>
      <trkpt lat="31.06087" lon="-7.92919">
        <ele>3590.71</ele>
        <time>2018-06-20T06:29:42Z</time>
      </trkpt>
      <trkpt lat="31.06078" lon="-7.92899">
        <ele>3597.28</ele>
        <time>2018-06-20T06:30:43Z</time>
      </trkpt>
      <trkpt lat="31.06069" lon="-7.92887">
        <ele>3602.6</ele>
        <time>2018-06-20T06:31:43Z</time>
      </trkpt>
      <trkpt lat="31.06064" lon="-7.92868">
        <ele>3606.87</ele>
        <time>2018-06-20T06:32:43Z</time>
      </trkpt>
      <trkpt lat="31.06057" lon="-7.92862">
        <ele>3612.78</ele>
        <time>2018-06-20T06:33:43Z</time>
      </trkpt>
      <trkpt lat="31.06058" lon="-7.92848">
        <ele>3617.68</ele>
        <time>2018-06-20T06:34:44Z</time>
      </trkpt>
      <trkpt lat="31.06058" lon="-7.92834">
        <ele>3621.27</ele>
        <time>2018-06-20T06:35:44Z</time>
      </trkpt>
      <trkpt lat="31.06065" lon="-7.92824">
        <ele>3624.31</ele>
        <time>2018-06-20T06:36:44Z</time>
      </trkpt>
      <trkpt lat="31.06066" lon="-7.92828">
        <ele>3624.69</ele>
        <time>2018-06-20T06:37:45Z</time>
      </trkpt>
      <trkpt lat="31.06059" lon="-7.92833">
        <ele>3623.52</ele>
        <time>2018-06-20T06:38:45Z</time>
      </trkpt>
      <trkpt lat="31.06057" lon="-7.92831">
        <ele>3622.75</ele>
        <time>2018-06-20T06:39:45Z</time>
      </trkpt>
      <trkpt lat="31.0606" lon="-7.92831">
        <ele>3622.52</ele>
        <time>2018-06-20T06:40:45Z</time>
      </trkpt>
      <trkpt lat="31.06062" lon="-7.92836">
        <ele>3622.44</ele>
        <time>2018-06-20T06:41:45Z</time>
      </trkpt>
      <trkpt lat="31.06038" lon="-7.92843">
        <ele>3622.64</ele>
        <time>2018-06-20T06:42:46Z</time>
      </trkpt>
      <trkpt lat="31.06058" lon="-7.92832">
        <ele>3622.62</ele>
        <time>2018-06-20T06:43:46Z</time>
      </trkpt>
      <trkpt lat="31.06058" lon="-7.92832">
        <ele>3622.64</ele>
        <time>2018-06-20T06:44:46Z</time>
      </trkpt>
      <trkpt lat="31.06059" lon="-7.92831">
        <ele>3622.65</ele>
        <time>2018-06-20T06:45:46Z</time>
      </trkpt>
      <trkpt lat="31.0606" lon="-7.92831">
        <ele>3622.42</ele>
        <time>2018-06-20T06:46:46Z</time>
      </trkpt>
      <trkpt lat="31.06057" lon="-7.92833">
        <ele>3622.61</ele>
        <time>2018-06-20T06:47:46Z</time>
      </trkpt>
      <trkpt lat="31.06058" lon="-7.9283">
        <ele>3622.61</ele>
        <time>2018-06-20T06:48:46Z</time>
      </trkpt>
      <trkpt lat="31.06057" lon="-7.92831">
        <ele>3622.72</ele>
        <time>2018-06-20T06:49:47Z</time>
      </trkpt>
      <trkpt lat="31.06059" lon="-7.92831">
        <ele>3622.6</ele>
        <time>2018-06-20T06:50:47Z</time>
      </trkpt>
      <trkpt lat="31.0606" lon="-7.92834">
        <ele>3622.36</ele>
        <time>2018-06-20T06:51:47Z</time>
      </trkpt>
      <trkpt lat="31.06053" lon="-7.92832">
        <ele>3623.25</ele>
        <time>2018-06-20T06:52:47Z</time>
      </trkpt>
      <trkpt lat="31.06057" lon="-7.92816">
        <ele>3627.94</ele>
        <time>2018-06-20T06:53:47Z</time>
      </trkpt>
      <trkpt lat="31.06048" lon="-7.92785">
        <ele>3633.81</ele>
        <time>2018-06-20T06:54:47Z</time>
      </trkpt>
      <trkpt lat="31.06049" lon="-7.9276">
        <ele>3639.15</ele>
        <time>2018-06-20T06:55:47Z</time>
      </trkpt>
      <trkpt lat="31.06046" lon="-7.92741">
        <ele>3644.47</ele>
        <time>2018-06-20T06:56:47Z</time>
      </trkpt>
      <trkpt lat="31.0605" lon="-7.92721">
        <ele>3650.3</ele>
        <time>2018-06-20T06:57:47Z</time>
      </trkpt>
      <trkpt lat="31.06042" lon="-7.927">
        <ele>3655.76</ele>
        <time>2018-06-20T06:58:47Z</time>
      </trkpt>
      <trkpt lat="31.06022" lon="-7.92685">
        <ele>3660.1</ele>
        <time>2018-06-20T06:59:47Z</time>
      </trkpt>
      <trkpt lat="31.06006" lon="-7.92667">
        <ele>3666.35</ele>
        <time>2018-06-20T07:00:47Z</time>
      </trkpt>
      <trkpt lat="31.06001" lon="-7.92648">
        <ele>3672.91</ele>
        <time>2018-06-20T07:01:47Z</time>
      </trkpt>
      <trkpt lat="31.06004" lon="-7.9263">
        <ele>3677.86</ele>
        <time>2018-06-20T07:02:47Z</time>
      </trkpt>
      <trkpt lat="31.06002" lon="-7.92611">
        <ele>3683.89</ele>
        <time>2018-06-20T07:03:47Z</time>
      </trkpt>
      <trkpt lat="31.05993" lon="-7.92595">
        <ele>3689.81</ele>
        <time>2018-06-20T07:04:47Z</time>
      </trkpt>
      <trkpt lat="31.05985" lon="-7.92601">
        <ele>3695.54</ele>
        <time>2018-06-20T07:05:47Z</time>
      </trkpt>
      <trkpt lat="31.0598" lon="-7.92565">
        <ele>3701.26</ele>
        <time>2018-06-20T07:06:47Z</time>
      </trkpt>
      <trkpt lat="31.0597" lon="-7.92562">
        <ele>3706.62</ele>
        <time>2018-06-20T07:07:47Z</time>
      </trkpt>
      <trkpt lat="31.05966" lon="-7.92539">
        <ele>3711.37</ele>
        <time>2018-06-20T07:08:47Z</time>
      </trkpt>
      <trkpt lat="31.05962" lon="-7.92522">
        <ele>3717.33</ele>
        <time>2018-06-20T07:09:47Z</time>
      </trkpt>
      <trkpt lat="31.05959" lon="-7.92504">
        <ele>3723.24</ele>
        <time>2018-06-20T07:10:47Z</time>
      </trkpt>
      <trkpt lat="31.05961" lon="-7.92495">
        <ele>3726.83</ele>
        <time>2018-06-20T07:11:47Z</time>
      </trkpt>
      <trkpt lat="31.05962" lon="-7.92492">
        <ele>3726.2</ele>
        <time>2018-06-20T07:12:47Z</time>
      </trkpt>
      <trkpt lat="31.05966" lon="-7.92492">
        <ele>3727.55</ele>
        <time>2018-06-20T07:13:47Z</time>
      </trkpt>
      <trkpt lat="31.05964" lon="-7.9249">
        <ele>3727.06</ele>
        <time>2018-06-20T07:14:47Z</time>
      </trkpt>
      <trkpt lat="31.05967" lon="-7.92493">
        <ele>3727.09</ele>
        <time>2018-06-20T07:15:47Z</time>
      </trkpt>
      <trkpt lat="31.05976" lon="-7.92487">
        <ele>3727.89</ele>
        <time>2018-06-20T07:16:48Z</time>
      </trkpt>
      <trkpt lat="31.05977" lon="-7.92474">
        <ele>3733.45</ele>
        <time>2018-06-20T07:17:48Z</time>
      </trkpt>
      <trkpt lat="31.05975" lon="-7.92462">
        <ele>3738.34</ele>
        <time>2018-06-20T07:18:49Z</time>
      </trkpt>
      <trkpt lat="31.05966" lon="-7.92449">
        <ele>3743.87</ele>
        <time>2018-06-20T07:19:49Z</time>
      </trkpt>
      <trkpt lat="31.05956" lon="-7.92435">
        <ele>3749.89</ele>
        <time>2018-06-20T07:20:49Z</time>
      </trkpt>
      <trkpt lat="31.0594" lon="-7.92426">
        <ele>3756.51</ele>
        <time>2018-06-20T07:21:49Z</time>
      </trkpt>
      <trkpt lat="31.05921" lon="-7.92413">
        <ele>3763.05</ele>
        <time>2018-06-20T07:22:49Z</time>
      </trkpt>
      <trkpt lat="31.05918" lon="-7.92394">
        <ele>3769.64</ele>
        <time>2018-06-20T07:23:49Z</time>
      </trkpt>
      <trkpt lat="31.05912" lon="-7.92373">
        <ele>3774.18</ele>
        <time>2018-06-20T07:24:49Z</time>
      </trkpt>
      <trkpt lat="31.05903" lon="-7.92355">
        <ele>3779.37</ele>
        <time>2018-06-20T07:25:49Z</time>
      </trkpt>
      <trkpt lat="31.05885" lon="-7.92345">
        <ele>3783.46</ele>
        <time>2018-06-20T07:26:49Z</time>
      </trkpt>
      <trkpt lat="31.05878" lon="-7.92323">
        <ele>3789.94</ele>
        <time>2018-06-20T07:27:49Z</time>
      </trkpt>
      <trkpt lat="31.05876" lon="-7.92304">
        <ele>3792.87</ele>
        <time>2018-06-20T07:28:49Z</time>
      </trkpt>
      <trkpt lat="31.05875" lon="-7.92309">
        <ele>3793.41</ele>
        <time>2018-06-20T07:29:49Z</time>
      </trkpt>
      <trkpt lat="31.05875" lon="-7.92314">
        <ele>3793.98</ele>
        <time>2018-06-20T07:30:49Z</time>
      </trkpt>
      <trkpt lat="31.05879" lon="-7.92299">
        <ele>3795.59</ele>
        <time>2018-06-20T07:31:49Z</time>
      </trkpt>
      <trkpt lat="31.05872" lon="-7.92285">
        <ele>3801.49</ele>
        <time>2018-06-20T07:32:49Z</time>
      </trkpt>
      <trkpt lat="31.05859" lon="-7.92278">
        <ele>3808.06</ele>
        <time>2018-06-20T07:33:49Z</time>
      </trkpt>
      <trkpt lat="31.05844" lon="-7.92273">
        <ele>3814.42</ele>
        <time>2018-06-20T07:34:50Z</time>
      </trkpt>
      <trkpt lat="31.05832" lon="-7.92267">
        <ele>3820.25</ele>
        <time>2018-06-20T07:35:50Z</time>
      </trkpt>
      <trkpt lat="31.05833" lon="-7.92257">
        <ele>3824.93</ele>
        <time>2018-06-20T07:36:50Z</time>
      </trkpt>
      <trkpt lat="31.05817" lon="-7.92239">
        <ele>3829.79</ele>
        <time>2018-06-20T07:37:50Z</time>
      </trkpt>
      <trkpt lat="31.05809" lon="-7.92214">
        <ele>3835.8</ele>
        <time>2018-06-20T07:38:50Z</time>
      </trkpt>
      <trkpt lat="31.05811" lon="-7.92199">
        <ele>3841.06</ele>
        <time>2018-06-20T07:39:50Z</time>
      </trkpt>
      <trkpt lat="31.058" lon="-7.92182">
        <ele>3846.85</ele>
        <time>2018-06-20T07:40:51Z</time>
      </trkpt>
      <trkpt lat="31.058" lon="-7.92166">
        <ele>3852.71</ele>
        <time>2018-06-20T07:41:52Z</time>
      </trkpt>
      <trkpt lat="31.05801" lon="-7.92153">
        <ele>3858.16</ele>
        <time>2018-06-20T07:42:52Z</time>
      </trkpt>
      <trkpt lat="31.05789" lon="-7.92148">
        <ele>3863.37</ele>
        <time>2018-06-20T07:43:52Z</time>
      </trkpt>
      <trkpt lat="31.05791" lon="-7.92137">
        <ele>3867.11</ele>
        <time>2018-06-20T07:44:52Z</time>
      </trkpt>
      <trkpt lat="31.05791" lon="-7.92137">
        <ele>3870.75</ele>
        <time>2018-06-20T07:45:52Z</time>
      </trkpt>
      <trkpt lat="31.05785" lon="-7.92139">
        <ele>3871.77</ele>
        <time>2018-06-20T07:46:53Z</time>
      </trkpt>
      <trkpt lat="31.05778" lon="-7.92138">
        <ele>3876.42</ele>
        <time>2018-06-20T07:47:53Z</time>
      </trkpt>
      <trkpt lat="31.05771" lon="-7.92128">
        <ele>3882.3</ele>
        <time>2018-06-20T07:48:53Z</time>
      </trkpt>
      <trkpt lat="31.05763" lon="-7.92121">
        <ele>3886.53</ele>
        <time>2018-06-20T07:49:53Z</time>
      </trkpt>
      <trkpt lat="31.05758" lon="-7.92113">
        <ele>3890.77</ele>
        <time>2018-06-20T07:50:53Z</time>
      </trkpt>
      <trkpt lat="31.05763" lon="-7.92113">
        <ele>3894.48</ele>
        <time>2018-06-20T07:51:53Z</time>
      </trkpt>
      <trkpt lat="31.05742" lon="-7.92098">
        <ele>3900.41</ele>
        <time>2018-06-20T07:52:53Z</time>
      </trkpt>
      <trkpt lat="31.05736" lon="-7.92083">
        <ele>3905.52</ele>
        <time>2018-06-20T07:53:53Z</time>
      </trkpt>
      <trkpt lat="31.05725" lon="-7.92064">
        <ele>3912.18</ele>
        <time>2018-06-20T07:54:54Z</time>
      </trkpt>
      <trkpt lat="31.05722" lon="-7.92059">
        <ele>3912.73</ele>
        <time>2018-06-20T07:55:54Z</time>
      </trkpt>
      <trkpt lat="31.05722" lon="-7.92061">
        <ele>3912.62</ele>
        <time>2018-06-20T07:56:54Z</time>
      </trkpt>
      <trkpt lat="31.05721" lon="-7.92061">
        <ele>3913.13</ele>
        <time>2018-06-20T07:57:54Z</time>
      </trkpt>
      <trkpt lat="31.05716" lon="-7.92064">
        <ele>3913.34</ele>
        <time>2018-06-20T07:58:54Z</time>
      </trkpt>
      <trkpt lat="31.05717" lon="-7.92065">
        <ele>3913.46</ele>
        <time>2018-06-20T07:59:54Z</time>
      </trkpt>
      <trkpt lat="31.05718" lon="-7.92064">
        <ele>3913.26</ele>
        <time>2018-06-20T08:00:54Z</time>
      </trkpt>
      <trkpt lat="31.05718" lon="-7.92062">
        <ele>3913.67</ele>
        <time>2018-06-20T08:01:54Z</time>
      </trkpt>
      <trkpt lat="31.05717" lon="-7.92065">
        <ele>3913.48</ele>
        <time>2018-06-20T08:02:54Z</time>
      </trkpt>
      <trkpt lat="31.05718" lon="-7.92061">
        <ele>3913.38</ele>
        <time>2018-06-20T08:03:54Z</time>
      </trkpt>
      <trkpt lat="31.05719" lon="-7.92064">
        <ele>3912.37</ele>
        <time>2018-06-20T08:04:54Z</time>
      </trkpt>
      <trkpt lat="31.05718" lon="-7.92064">
        <ele>3912.22</ele>
        <time>2018-06-20T08:05:54Z</time>
      </trkpt>
      <trkpt lat="31.05716" lon="-7.92065">
        <ele>3913.55</ele>
        <time>2018-06-20T08:06:54Z</time>
      </trkpt>
      <trkpt lat="31.05719" lon="-7.92063">
        <ele>3913.67</ele>
        <time>2018-06-20T08:07:54Z</time>
      </trkpt>
      <trkpt lat="31.05717" lon="-7.92065">
        <ele>3912.79</ele>
        <time>2018-06-20T08:08:54Z</time>
      </trkpt>
      <trkpt lat="31.05717" lon="-7.92067">
        <ele>3913.78</ele>
        <time>2018-06-20T08:09:54Z</time>
      </trkpt>
      <trkpt lat="31.05716" lon="-7.92068">
        <ele>3912.97</ele>
        <time>2018-06-20T08:10:54Z</time>
      </trkpt>
      <trkpt lat="31.05718" lon="-7.92066">
        <ele>3913.05</ele>
        <time>2018-06-20T08:11:54Z</time>
      </trkpt>
      <trkpt lat="31.05716" lon="-7.92065">
        <ele>3913.11</ele>
        <time>2018-06-20T08:12:54Z</time>
      </trkpt>
      <trkpt lat="31.05718" lon="-7.92067">
        <ele>3912.85</ele>
        <time>2018-06-20T08:13:54Z</time>
      </trkpt>
      <trkpt lat="31.05716" lon="-7.92073">
        <ele>3913.79</ele>
        <time>2018-06-20T08:14:55Z</time>
      </trkpt>
      <trkpt lat="31.05707" lon="-7.92061">
        <ele>3916.35</ele>
        <time>2018-06-20T08:15:55Z</time>
      </trkpt>
      <trkpt lat="31.05692" lon="-7.92052">
        <ele>3922.3</ele>
        <time>2018-06-20T08:16:55Z</time>
      </trkpt>
      <trkpt lat="31.05682" lon="-7.92041">
        <ele>3927.15</ele>
        <time>2018-06-20T08:17:55Z</time>
      </trkpt>
      <trkpt lat="31.05674" lon="-7.92026">
        <ele>3931.87</ele>
        <time>2018-06-20T08:18:55Z</time>
      </trkpt>
      <trkpt lat="31.05671" lon="-7.9201">
        <ele>3936.94</ele>
        <time>2018-06-20T08:19:55Z</time>
      </trkpt>
      <trkpt lat="31.05658" lon="-7.92">
        <ele>3942.23</ele>
        <time>2018-06-20T08:20:55Z</time>
      </trkpt>
      <trkpt lat="31.05647" lon="-7.91986">
        <ele>3947.65</ele>
        <time>2018-06-20T08:21:55Z</time>
      </trkpt>
      <trkpt lat="31.05642" lon="-7.91966">
        <ele>3953.78</ele>
        <time>2018-06-20T08:22:55Z</time>
      </trkpt>
      <trkpt lat="31.05631" lon="-7.9195">
        <ele>3960.01</ele>
        <time>2018-06-20T08:23:55Z</time>
      </trkpt>
      <trkpt lat="31.05618" lon="-7.91939">
        <ele>3965.42</ele>
        <time>2018-06-20T08:24:55Z</time>
      </trkpt>
      <trkpt lat="31.05621" lon="-7.91914">
        <ele>3971.53</ele>
        <time>2018-06-20T08:25:55Z</time>
      </trkpt>
      <trkpt lat="31.0561" lon="-7.91899">
        <ele>3978.22</ele>
        <time>2018-06-20T08:26:55Z</time>
      </trkpt>
      <trkpt lat="31.05606" lon="-7.91879">
        <ele>3984.68</ele>
        <time>2018-06-20T08:27:55Z</time>
      </trkpt>
      <trkpt lat="31.0561" lon="-7.91858">
        <ele>3990.88</ele>
        <time>2018-06-20T08:28:55Z</time>
      </trkpt>
      <trkpt lat="31.05611" lon="-7.91843">
        <ele>3993.71</ele>
        <time>2018-06-20T08:29:55Z</time>
      </trkpt>
      <trkpt lat="31.05616" lon="-7.91837">
        <ele>3995.96</ele>
        <time>2018-06-20T08:30:55Z</time>
      </trkpt>
      <trkpt lat="31.05616" lon="-7.91836">
        <ele>3996.64</ele>
        <time>2018-06-20T08:31:55Z</time>
      </trkpt>
      <trkpt lat="31.05615" lon="-7.91836">
        <ele>3996.73</ele>
        <time>2018-06-20T08:32:55Z</time>
      </trkpt>
      <trkpt lat="31.05615" lon="-7.91836">
        <ele>3996.88</ele>
        <time>2018-06-20T08:33:55Z</time>
      </trkpt>
      <trkpt lat="31.05627" lon="-7.91836">
        <ele>3999.37</ele>
        <time>2018-06-20T08:34:55Z</time>
      </trkpt>
      <trkpt lat="31.05633" lon="-7.91826">
        <ele>4004.64</ele>
        <time>2018-06-20T08:35:55Z</time>
      </trkpt>
      <trkpt lat="31.05646" lon="-7.91816">
        <ele>4010.71</ele>
        <time>2018-06-20T08:36:56Z</time>
      </trkpt>
      <trkpt lat="31.05642" lon="-7.918">
        <ele>4016.12</ele>
        <time>2018-06-20T08:37:56Z</time>
      </trkpt>
      <trkpt lat="31.0565" lon="-7.91788">
        <ele>4021.61</ele>
        <time>2018-06-20T08:38:56Z</time>
      </trkpt>
      <trkpt lat="31.05652" lon="-7.91775">
        <ele>4026.96</ele>
        <time>2018-06-20T08:39:56Z</time>
      </trkpt>
      <trkpt lat="31.05669" lon="-7.91769">
        <ele>4031.2</ele>
        <time>2018-06-20T08:40:56Z</time>
      </trkpt>
      <trkpt lat="31.05688" lon="-7.91765">
        <ele>4036.62</ele>
        <time>2018-06-20T08:41:56Z</time>
      </trkpt>
      <trkpt lat="31.05702" lon="-7.91754">
        <ele>4042.31</ele>
        <time>2018-06-20T08:42:56Z</time>
      </trkpt>
      <trkpt lat="31.05707" lon="-7.91745">
        <ele>4046.33</ele>
        <time>2018-06-20T08:43:56Z</time>
      </trkpt>
      <trkpt lat="31.0573" lon="-7.91742">
        <ele>4051.34</ele>
        <time>2018-06-20T08:44:56Z</time>
      </trkpt>
      <trkpt lat="31.05742" lon="-7.91737">
        <ele>4056.82</ele>
        <time>2018-06-20T08:45:56Z</time>
      </trkpt>
      <trkpt lat="31.05761" lon="-7.91734">
        <ele>4062.93</ele>
        <time>2018-06-20T08:46:56Z</time>
      </trkpt>
      <trkpt lat="31.05777" lon="-7.9173">
        <ele>4069.77</ele>
        <time>2018-06-20T08:47:56Z</time>
      </trkpt>
      <trkpt lat="31.05789" lon="-7.91726">
        <ele>4075.39</ele>
        <time>2018-06-20T08:48:56Z</time>
      </trkpt>
      <trkpt lat="31.05811" lon="-7.91722">
        <ele>4080.25</ele>
        <time>2018-06-20T08:49:56Z</time>
      </trkpt>
      <trkpt lat="31.05822" lon="-7.91715">
        <ele>4087.32</ele>
        <time>2018-06-20T08:50:56Z</time>
      </trkpt>
      <trkpt lat="31.05833" lon="-7.91714">
        <ele>4091.58</ele>
        <time>2018-06-20T08:51:56Z</time>
      </trkpt>
      <trkpt lat="31.05839" lon="-7.91712">
        <ele>4095.86</ele>
        <time>2018-06-20T08:52:56Z</time>
      </trkpt>
      <trkpt lat="31.05842" lon="-7.91707">
        <ele>4098.94</ele>
        <time>2018-06-20T08:53:57Z</time>
      </trkpt>
      <trkpt lat="31.05845" lon="-7.91707">
        <ele>4099.08</ele>
        <time>2018-06-20T08:54:57Z</time>
      </trkpt>
      <trkpt lat="31.05843" lon="-7.91709">
        <ele>4099.69</ele>
        <time>2018-06-20T08:55:57Z</time>
      </trkpt>
      <trkpt lat="31.05843" lon="-7.91708">
        <ele>4099.96</ele>
        <time>2018-06-20T08:56:58Z</time>
      </trkpt>
      <trkpt lat="31.05844" lon="-7.91708">
        <ele>4099.63</ele>
        <time>2018-06-20T08:57:58Z</time>
      </trkpt>
      <trkpt lat="31.05846" lon="-7.91708">
        <ele>4100</ele>
        <time>2018-06-20T08:58:58Z</time>
      </trkpt>
      <trkpt lat="31.05848" lon="-7.91706">
        <ele>4096.63</ele>
        <time>2018-06-20T08:59:59Z</time>
      </trkpt>
      <trkpt lat="31.05848" lon="-7.91708">
        <ele>4099.54</ele>
        <time>2018-06-20T09:00:59Z</time>
      </trkpt>
      <trkpt lat="31.05847" lon="-7.91708">
        <ele>4099.57</ele>
        <time>2018-06-20T09:01:59Z</time>
      </trkpt>
      <trkpt lat="31.05844" lon="-7.9171">
        <ele>4098.67</ele>
        <time>2018-06-20T09:02:59Z</time>
      </trkpt>
      <trkpt lat="31.05844" lon="-7.9171">
        <ele>4098.55</ele>
        <time>2018-06-20T09:03:59Z</time>
      </trkpt>
      <trkpt lat="31.05847" lon="-7.91708">
        <ele>4098.71</ele>
        <time>2018-06-20T09:04:59Z</time>
      </trkpt>
      <trkpt lat="31.05848" lon="-7.91708">
        <ele>4099.32</ele>
        <time>2018-06-20T09:05:59Z</time>
      </trkpt>
      <trkpt lat="31.05846" lon="-7.91709">
        <ele>4097.94</ele>
        <time>2018-06-20T09:06:59Z</time>
      </trkpt>
      <trkpt lat="31.05845" lon="-7.91708">
        <ele>4098.07</ele>
        <time>2018-06-20T09:07:59Z</time>
      </trkpt>
      <trkpt lat="31.0585" lon="-7.91708">
        <ele>4098.07</ele>
        <time>2018-06-20T09:08:59Z</time>
      </trkpt>
      <trkpt lat="31.05848" lon="-7.91709">
        <ele>4098.89</ele>
        <time>2018-06-20T09:09:59Z</time>
      </trkpt>
      <trkpt lat="31.05848" lon="-7.9171">
        <ele>4098.4</ele>
        <time>2018-06-20T09:10:59Z</time>
      </trkpt>
      <trkpt lat="31.05847" lon="-7.91709">
        <ele>4098.12</ele>
        <time>2018-06-20T09:12:00Z</time>
      </trkpt>
      <trkpt lat="31.05849" lon="-7.91708">
        <ele>4098.09</ele>
        <time>2018-06-20T09:13:00Z</time>
      </trkpt>
      <trkpt lat="31.05848" lon="-7.91708">
        <ele>4098.3</ele>
        <time>2018-06-20T09:14:00Z</time>
      </trkpt>
      <trkpt lat="31.05849" lon="-7.9171">
        <ele>4098</ele>
        <time>2018-06-20T09:15:00Z</time>
      </trkpt>
      <trkpt lat="31.05848" lon="-7.91708">
        <ele>4098.22</ele>
        <time>2018-06-20T09:16:01Z</time>
      </trkpt>
      <trkpt lat="31.05849" lon="-7.91709">
        <ele>4098.66</ele>
        <time>2018-06-20T09:17:01Z</time>
      </trkpt>
      <trkpt lat="31.05849" lon="-7.91707">
        <ele>4098.28</ele>
        <time>2018-06-20T09:18:01Z</time>
      </trkpt>
      <trkpt lat="31.05848" lon="-7.91708">
        <ele>4098.37</ele>
        <time>2018-06-20T09:19:01Z</time>
      </trkpt>
      <trkpt lat="31.05848" lon="-7.91708">
        <ele>4097.64</ele>
        <time>2018-06-20T09:20:01Z</time>
      </trkpt>
      <trkpt lat="31.05848" lon="-7.91706">
        <ele>4097.62</ele>
        <time>2018-06-20T09:21:01Z</time>
      </trkpt>
      <trkpt lat="31.05846" lon="-7.91708">
        <ele>4098.28</ele>
        <time>2018-06-20T09:22:01Z</time>
      </trkpt>
      <trkpt lat="31.05886" lon="-7.91699">
        <ele>4100.15</ele>
        <time>2018-06-20T09:23:02Z</time>
      </trkpt>
      <trkpt lat="31.059" lon="-7.91717">
        <ele>4101.03</ele>
        <time>2018-06-20T09:24:02Z</time>
      </trkpt>
      <trkpt lat="31.05931" lon="-7.91699">
        <ele>4102.6</ele>
        <time>2018-06-20T09:25:02Z</time>
      </trkpt>
      <trkpt lat="31.05949" lon="-7.91684">
        <ele>4107.31</ele>
        <time>2018-06-20T09:26:02Z</time>
      </trkpt>
      <trkpt lat="31.0597" lon="-7.91667">
        <ele>4112.79</ele>
        <time>2018-06-20T09:27:03Z</time>
      </trkpt>
      <trkpt lat="31.05987" lon="-7.91653">
        <ele>4119.35</ele>
        <time>2018-06-20T09:28:04Z</time>
      </trkpt>
      <trkpt lat="31.05994" lon="-7.9165">
        <ele>4122.27</ele>
        <time>2018-06-20T09:29:04Z</time>
      </trkpt>
      <trkpt lat="31.06013" lon="-7.91641">
        <ele>4130.02</ele>
        <time>2018-06-20T09:30:04Z</time>
      </trkpt>
      <trkpt lat="31.0601" lon="-7.91632">
        <ele>4136.02</ele>
        <time>2018-06-20T09:31:04Z</time>
      </trkpt>
      <trkpt lat="31.06023" lon="-7.91621">
        <ele>4142.4</ele>
        <time>2018-06-20T09:32:04Z</time>
      </trkpt>
      <trkpt lat="31.06039" lon="-7.91601">
        <ele>4148.13</ele>
        <time>2018-06-20T09:33:04Z</time>
      </trkpt>
      <trkpt lat="31.06037" lon="-7.91571">
        <ele>4155.23</ele>
        <time>2018-06-20T09:34:04Z</time>
      </trkpt>
      <trkpt lat="31.06025" lon="-7.91538">
        <ele>4162.33</ele>
        <time>2018-06-20T09:35:04Z</time>
      </trkpt>
      <trkpt lat="31.06005" lon="-7.9151">
        <ele>4167.76</ele>
        <time>2018-06-20T09:36:04Z</time>
      </trkpt>
      <trkpt lat="31.05988" lon="-7.91492">
        <ele>4171.86</ele>
        <time>2018-06-20T09:37:04Z</time>
      </trkpt>
      <trkpt lat="31.05986" lon="-7.91488">
        <ele>4172.36</ele>
        <time>2018-06-20T09:38:05Z</time>
      </trkpt>
      <trkpt lat="31.05982" lon="-7.91491">
        <ele>4171.81</ele>
        <time>2018-06-20T09:39:06Z</time>
      </trkpt>
      <trkpt lat="31.05982" lon="-7.91494">
        <ele>4171.28</ele>
        <time>2018-06-20T09:40:06Z</time>
      </trkpt>
      <trkpt lat="31.05995" lon="-7.9149">
        <ele>4170.89</ele>
        <time>2018-06-20T09:41:06Z</time>
      </trkpt>
      <trkpt lat="31.05989" lon="-7.91493">
        <ele>4171.59</ele>
        <time>2018-06-20T09:42:06Z</time>
      </trkpt>
      <trkpt lat="31.05985" lon="-7.91492">
        <ele>4171.28</ele>
        <time>2018-06-20T09:43:06Z</time>
      </trkpt>
      <trkpt lat="31.05988" lon="-7.91492">
        <ele>4171.58</ele>
        <time>2018-06-20T09:44:06Z</time>
      </trkpt>
      <trkpt lat="31.05985" lon="-7.91493">
        <ele>4172.28</ele>
        <time>2018-06-20T09:45:07Z</time>
      </trkpt>
      <trkpt lat="31.05981" lon="-7.91486">
        <ele>4171.54</ele>
        <time>2018-06-20T09:46:09Z</time>
      </trkpt>
      <trkpt lat="31.05983" lon="-7.91493">
        <ele>4170.73</ele>
        <time>2018-06-20T09:47:09Z</time>
      </trkpt>
      <trkpt lat="31.05984" lon="-7.91489">
        <ele>4172.18</ele>
        <time>2018-06-20T09:48:09Z</time>
      </trkpt>
      <trkpt lat="31.05984" lon="-7.91489">
        <ele>4172.26</ele>
        <time>2018-06-20T09:49:09Z</time>
      </trkpt>
      <trkpt lat="31.0598" lon="-7.91494">
        <ele>4170.84</ele>
        <time>2018-06-20T09:50:09Z</time>
      </trkpt>
      <trkpt lat="31.0598" lon="-7.91493">
        <ele>4172.41</ele>
        <time>2018-06-20T09:51:09Z</time>
      </trkpt>
      <trkpt lat="31.05985" lon="-7.91492">
        <ele>4170.59</ele>
        <time>2018-06-20T09:52:10Z</time>
      </trkpt>
      <trkpt lat="31.05983" lon="-7.91489">
        <ele>4172.89</ele>
        <time>2018-06-20T09:53:10Z</time>
      </trkpt>
      <trkpt lat="31.05986" lon="-7.9149">
        <ele>4172.88</ele>
        <time>2018-06-20T09:54:10Z</time>
      </trkpt>
      <trkpt lat="31.05983" lon="-7.91492">
        <ele>4172.42</ele>
        <time>2018-06-20T09:55:10Z</time>
      </trkpt>
      <trkpt lat="31.05985" lon="-7.91489">
        <ele>4172.8</ele>
        <time>2018-06-20T09:56:10Z</time>
      </trkpt>
      <trkpt lat="31.05979" lon="-7.91491">
        <ele>4171.02</ele>
        <time>2018-06-20T09:57:10Z</time>
      </trkpt>
      <trkpt lat="31.05978" lon="-7.91492">
        <ele>4171.08</ele>
        <time>2018-06-20T09:58:10Z</time>
      </trkpt>
      <trkpt lat="31.05978" lon="-7.91491">
        <ele>4171.79</ele>
        <time>2018-06-20T09:59:10Z</time>
      </trkpt>
      <trkpt lat="31.0598" lon="-7.91491">
        <ele>4171.1</ele>
        <time>2018-06-20T10:00:10Z</time>
      </trkpt>
      <trkpt lat="31.05978" lon="-7.91493">
        <ele>4171.12</ele>
        <time>2018-06-20T10:01:10Z</time>
      </trkpt>
      <trkpt lat="31.05978" lon="-7.91492">
        <ele>4170.79</ele>
        <time>2018-06-20T10:02:10Z</time>
      </trkpt>
      <trkpt lat="31.05985" lon="-7.91493">
        <ele>4171.25</ele>
        <time>2018-06-20T10:03:10Z</time>
      </trkpt>
      <trkpt lat="31.05984" lon="-7.91492">
        <ele>4171.23</ele>
        <time>2018-06-20T10:04:10Z</time>
      </trkpt>
      <trkpt lat="31.05985" lon="-7.91492">
        <ele>4171.39</ele>
        <time>2018-06-20T10:05:10Z</time>
      </trkpt>
      <trkpt lat="31.05985" lon="-7.91494">
        <ele>4171.35</ele>
        <time>2018-06-20T10:06:10Z</time>
      </trkpt>
      <trkpt lat="31.05984" lon="-7.91493">
        <ele>4171.02</ele>
        <time>2018-06-20T10:07:11Z</time>
      </trkpt>
      <trkpt lat="31.05984" lon="-7.91493">
        <ele>4170.7</ele>
        <time>2018-06-20T10:08:11Z</time>
      </trkpt>
      <trkpt lat="31.05976" lon="-7.9149">
        <ele>4171.09</ele>
        <time>2018-06-20T10:09:13Z</time>
      </trkpt>
      <trkpt lat="31.06001" lon="-7.91502">
        <ele>4167.53</ele>
        <time>2018-06-20T10:10:13Z</time>
      </trkpt>
      <trkpt lat="31.05985" lon="-7.91495">
        <ele>4170.31</ele>
        <time>2018-06-20T10:11:13Z</time>
      </trkpt>
      <trkpt lat="31.0598" lon="-7.91496">
        <ele>4170.16</ele>
        <time>2018-06-20T10:12:13Z</time>
      </trkpt>
      <trkpt lat="31.05986" lon="-7.91494">
        <ele>4170.34</ele>
        <time>2018-06-20T10:13:13Z</time>
      </trkpt>
      <trkpt lat="31.05986" lon="-7.91494">
        <ele>4170.13</ele>
        <time>2018-06-20T10:14:13Z</time>
      </trkpt>
      <trkpt lat="31.05985" lon="-7.91494">
        <ele>4169.59</ele>
        <time>2018-06-20T10:15:13Z</time>
      </trkpt>
      <trkpt lat="31.0599" lon="-7.91489">
        <ele>4170.09</ele>
        <time>2018-06-20T10:16:14Z</time>
      </trkpt>
      <trkpt lat="31.05984" lon="-7.91493">
        <ele>4169.35</ele>
        <time>2018-06-20T10:17:14Z</time>
      </trkpt>
      <trkpt lat="31.05985" lon="-7.91494">
        <ele>4169.48</ele>
        <time>2018-06-20T10:18:14Z</time>
      </trkpt>
      <trkpt lat="31.05984" lon="-7.91491">
        <ele>4169.24</ele>
        <time>2018-06-20T10:19:14Z</time>
      </trkpt>
      <trkpt lat="31.05987" lon="-7.91491">
        <ele>4169.31</ele>
        <time>2018-06-20T10:20:14Z</time>
      </trkpt>
      <trkpt lat="31.05996" lon="-7.91493">
        <ele>4168.06</ele>
        <time>2018-06-20T10:21:14Z</time>
      </trkpt>
      <trkpt lat="31.0599" lon="-7.91493">
        <ele>4169.64</ele>
        <time>2018-06-20T10:22:14Z</time>
      </trkpt>
      <trkpt lat="31.05986" lon="-7.91492">
        <ele>4169.75</ele>
        <time>2018-06-20T10:23:14Z</time>
      </trkpt>
      <trkpt lat="31.05985" lon="-7.91493">
        <ele>4169.09</ele>
        <time>2018-06-20T10:23:58Z</time>
      </trkpt>
    </trkseg>
  </trk>
</gpx>